Arnold, Kansas
Current Conditions -  °F | °C
As of 5:15 AM on Friday 24 Oct 2014 (Local Time) from KHYS Reporting Station
Few Clouds Few Clouds  
Wind Chill: 13°   Ceiling: Unl
Heat Index: 13°   Visibility: 2.5mi
Dew Point: 10°   Wind: 6mph
Humidity: 82%   Direction: 220°SW
Pressure: 30.02"   Gusts: NA
Location:  38.64°N, 100.05°W
Report Text: KHYS 241015Z AUTO 22005KT 2 1/2SM FEW004 13/10 A3002 RMK AO1
Loading
Personal Weather Stations






























Interactive Weather Map
Tropical Storm Tracking
New forecast layout! Learn more

10-Day Weather Forecast

Advertisements
Track Severe Weather on mobile